Pittsburg, New Hampshire
Current Conditions -  °F | °C
As of 12:00 PM on Monday 22 Dec 2014 (Local Time) from CYSC Reporting Station
Overcast Overcast  
Wind Chill: 21°   Ceiling: 2800
Heat Index: 27°   Visibility: 9mi
Dew Point: 23°   Wind: 5mph
Humidity: 86%   Direction: 60°ENE
Pressure: 30.33"   Gusts: NA
Location:  45.05°N, 71.39°W
Report Text: CYSC 221700Z AUTO 06004KT 350V080 9SM OVC028 M03/M05 A3033 RMK SLP287
Loading
Personal Weather Stations






























Interactive Weather Map New forecast layout! Learn more

10-Day Weather Forecast

Advertisements
Track Severe Weather on mobile